Aberdeen, Idaho
Current Conditions -  °F | °C
As of 9:53 AM on Friday 31 Oct 2014 (Local Time) from KPIH Reporting Station
Clear Clear  
Wind Chill: 44°   Ceiling: Unl
Heat Index: 46°   Visibility: 10mi
Dew Point: 31°   Wind: 5mph
Humidity: 56%   Direction: 320°NW
Pressure: 29.96"   Gusts: NA
Location:  42.94°N, 112.84°W
Report Text: KPIH 311553Z 32004KT 10SM CLR 08/M01 A2996 RMK AO2 SLP137 T00781006 $
Loading
Personal Weather Stations






























Interactive Weather Map New forecast layout! Learn more

10-Day Weather Forecast

Advertisements
Track Severe Weather on mobile